sensor_id;sensor_type;location;lat;lon;timestamp;temperature;humidity
68842;SHT35;55849;48.482;2.332;2022-08-19T00:00:48;25.30;51.48
68842;SHT35;55849;48.482;2.332;2022-08-19T00:03:50;25.27;51.56
68842;SHT35;55849;48.482;2.332;2022-08-19T00:06:53;25.24;51.59
68842;SHT35;55849;48.482;2.332;2022-08-19T00:09:54;25.20;51.92
68842;SHT35;55849;48.482;2.332;2022-08-19T00:12:57;25.13;51.72
68842;SHT35;55849;48.482;2.332;2022-08-19T00:15:59;25.11;52.01
68842;SHT35;55849;48.482;2.332;2022-08-19T00:19:02;25.07;52.14
68842;SHT35;55849;48.482;2.332;2022-08-19T00:22:04;25.02;52.00
68842;SHT35;55849;48.482;2.332;2022-08-19T00:25:07;24.97;52.32
68842;SHT35;55849;48.482;2.332;2022-08-19T00:28:12;24.92;52.46
68842;SHT35;55849;48.482;2.332;2022-08-19T00:31:13;24.87;52.50
68842;SHT35;55849;48.482;2.332;2022-08-19T00:34:16;24.83;52.56
68842;SHT35;55849;48.482;2.332;2022-08-19T00:37:18;24.79;52.52
68842;SHT35;55849;48.482;2.332;2022-08-19T00:40:20;24.75;52.62
68842;SHT35;55849;48.482;2.332;2022-08-19T00:43:25;24.71;52.65
68842;SHT35;55849;48.482;2.332;2022-08-19T00:46:27;24.65;52.70
68842;SHT35;55849;48.482;2.332;2022-08-19T00:49:32;24.61;52.90
68842;SHT35;55849;48.482;2.332;2022-08-19T00:52:39;24.54;52.92
68842;SHT35;55849;48.482;2.332;2022-08-19T00:55:46;24.49;53.09
68842;SHT35;55849;48.482;2.332;2022-08-19T00:58:50;24.45;53.23
68842;SHT35;55849;48.482;2.332;2022-08-19T01:01:52;24.37;53.22
68842;SHT35;55849;48.482;2.332;2022-08-19T01:04:54;24.33;53.58
68842;SHT35;55849;48.482;2.332;2022-08-19T01:07:59;24.27;53.47
68842;SHT35;55849;48.482;2.332;2022-08-19T01:11:02;24.21;53.59
68842;SHT35;55849;48.482;2.332;2022-08-19T01:14:06;24.17;53.62
68842;SHT35;55849;48.482;2.332;2022-08-19T01:17:09;24.10;53.66
68842;SHT35;55849;48.482;2.332;2022-08-19T01:20:13;24.07;53.91
68842;SHT35;55849;48.482;2.332;2022-08-19T01:23:16;24.02;53.96
68842;SHT35;55849;48.482;2.332;2022-08-19T01:26:20;23.98;54.02
68842;SHT35;55849;48.482;2.332;2022-08-19T01:29:22;23.92;54.00
68842;SHT35;55849;48.482;2.332;2022-08-19T01:32:24;23.89;53.94
68842;SHT35;55849;48.482;2.332;2022-08-19T01:35:29;23.82;53.96
68842;SHT35;55849;48.482;2.332;2022-08-19T01:38:35;23.78;53.93
68842;SHT35;55849;48.482;2.332;2022-08-19T01:41:37;23.73;53.98
68842;SHT35;55849;48.482;2.332;2022-08-19T01:44:39;23.68;54.02
68842;SHT35;55849;48.482;2.332;2022-08-19T01:47:42;23.62;54.02
68842;SHT35;55849;48.482;2.332;2022-08-19T01:50:43;23.55;54.25
68842;SHT35;55849;48.482;2.332;2022-08-19T01:53:48;23.51;54.40
68842;SHT35;55849;48.482;2.332;2022-08-19T01:56:50;23.48;54.38
68842;SHT35;55849;48.482;2.332;2022-08-19T01:59:52;23.43;54.31
68842;SHT35;55849;48.482;2.332;2022-08-19T02:02:54;23.37;54.33
68842;SHT35;55849;48.482;2.332;2022-08-19T02:05:58;23.33;54.33
68842;SHT35;55849;48.482;2.332;2022-08-19T02:09:03;23.27;54.42
68842;SHT35;55849;48.482;2.332;2022-08-19T02:12:06;23.21;54.44
68842;SHT35;55849;48.482;2.332;2022-08-19T02:15:09;23.16;54.36
68842;SHT35;55849;48.482;2.332;2022-08-19T02:18:11;23.12;54.39
68842;SHT35;55849;48.482;2.332;2022-08-19T02:21:12;23.09;54.47
68842;SHT35;55849;48.482;2.332;2022-08-19T02:24:17;23.02;54.53
68842;SHT35;55849;48.482;2.332;2022-08-19T02:27:18;22.96;54.69
68842;SHT35;55849;48.482;2.332;2022-08-19T02:30:20;22.92;54.79
68842;SHT35;55849;48.482;2.332;2022-08-19T02:33:22;22.88;54.84
68842;SHT35;55849;48.482;2.332;2022-08-19T02:36:25;22.84;54.96
68842;SHT35;55849;48.482;2.332;2022-08-19T02:39:28;22.78;55.18
68842;SHT35;55849;48.482;2.332;2022-08-19T02:42:29;22.75;55.34
68842;SHT35;55849;48.482;2.332;2022-08-19T02:45:32;22.73;55.43
68842;SHT35;55849;48.482;2.332;2022-08-19T02:48:34;22.71;55.58
68842;SHT35;55849;48.482;2.332;2022-08-19T02:51:38;22.67;55.66
68842;SHT35;55849;48.482;2.332;2022-08-19T02:54:41;22.67;55.73
68842;SHT35;55849;48.482;2.332;2022-08-19T02:57:43;22.64;55.96
68842;SHT35;55849;48.482;2.332;2022-08-19T03:00:48;22.60;55.88
68842;SHT35;55849;48.482;2.332;2022-08-19T03:03:49;22.58;56.06
68842;SHT35;55849;48.482;2.332;2022-08-19T03:06:51;22.54;56.23
68842;SHT35;55849;48.482;2.332;2022-08-19T03:09:55;22.55;56.34
68842;SHT35;55849;48.482;2.332;2022-08-19T03:12:57;22.54;56.38
68842;SHT35;55849;48.482;2.332;2022-08-19T03:15:58;22.51;56.72
68842;SHT35;55849;48.482;2.332;2022-08-19T03:19:01;22.48;56.63
68842;SHT35;55849;48.482;2.332;2022-08-19T03:22:03;22.51;56.79
68842;SHT35;55849;48.482;2.332;2022-08-19T03:25:07;22.48;56.80
68842;SHT35;55849;48.482;2.332;2022-08-19T03:28:09;22.47;56.86
68842;SHT35;55849;48.482;2.332;2022-08-19T03:31:13;22.45;56.88
68842;SHT35;55849;48.482;2.332;2022-08-19T03:34:17;22.43;57.02
68842;SHT35;55849;48.482;2.332;2022-08-19T03:37:18;22.41;57.02
68842;SHT35;55849;48.482;2.332;2022-08-19T03:40:23;22.40;57.14
68842;SHT35;55849;48.482;2.332;2022-08-19T03:43:25;22.36;57.15
68842;SHT35;55849;48.482;2.332;2022-08-19T03:46:29;22.34;57.22
68842;SHT35;55849;48.482;2.332;2022-08-19T03:49:33;22.33;57.19
68842;SHT35;55849;48.482;2.332;2022-08-19T03:52:35;22.30;57.46
68842;SHT35;55849;48.482;2.332;2022-08-19T03:55:41;22.26;57.47
68842;SHT35;55849;48.482;2.332;2022-08-19T03:58:43;22.26;57.60
68842;SHT35;55849;48.482;2.332;2022-08-19T04:01:45;22.24;57.73
68842;SHT35;55849;48.482;2.332;2022-08-19T04:04:47;22.24;57.85
68842;SHT35;55849;48.482;2.332;2022-08-19T04:07:48;22.21;58.04
68842;SHT35;55849;48.482;2.332;2022-08-19T04:10:51;22.21;58.07
68842;SHT35;55849;48.482;2.332;2022-08-19T04:13:54;22.21;58.31
68842;SHT35;55849;48.482;2.332;2022-08-19T04:16:58;22.23;58.34
68842;SHT35;55849;48.482;2.332;2022-08-19T04:20:00;22.21;58.44
68842;SHT35;55849;48.482;2.332;2022-08-19T04:23:02;22.24;58.44
68842;SHT35;55849;48.482;2.332;2022-08-19T04:26:05;22.24;58.51
68842;SHT35;55849;48.482;2.332;2022-08-19T04:29:09;22.24;58.58
68842;SHT35;55849;48.482;2.332;2022-08-19T04:32:11;22.26;58.59
68842;SHT35;55849;48.482;2.332;2022-08-19T04:35:15;22.23;58.76
68842;SHT35;55849;48.482;2.332;2022-08-19T04:38:19;22.23;58.69
68842;SHT35;55849;48.482;2.332;2022-08-19T04:41:22;22.21;58.70
68842;SHT35;55849;48.482;2.332;2022-08-19T04:44:41;22.21;58.77
68842;SHT35;55849;48.482;2.332;2022-08-19T04:47:44;22.21;58.91
68842;SHT35;55849;48.482;2.332;2022-08-19T04:50:45;22.23;58.90
68842;SHT35;55849;48.482;2.332;2022-08-19T04:53:47;22.20;59.08
68842;SHT35;55849;48.482;2.332;2022-08-19T04:56:51;22.21;59.17
68842;SHT35;55849;48.482;2.332;2022-08-19T04:59:54;22.20;59.24
68842;SHT35;55849;48.482;2.332;2022-08-19T05:02:56;22.20;59.19
68842;SHT35;55849;48.482;2.332;2022-08-19T05:05:57;22.20;59.42
68842;SHT35;55849;48.482;2.332;2022-08-19T05:08:59;22.23;59.33
68842;SHT35;55849;48.482;2.332;2022-08-19T05:12:03;22.23;59.49
68842;SHT35;55849;48.482;2.332;2022-08-19T05:15:06;22.21;59.54
68842;SHT35;55849;48.482;2.332;2022-08-19T05:18:09;22.24;59.75
68842;SHT35;55849;48.482;2.332;2022-08-19T05:21:28;22.24;59.77
68842;SHT35;55849;48.482;2.332;2022-08-19T05:24:48;22.24;59.74
68842;SHT35;55849;48.482;2.332;2022-08-19T05:27:51;22.26;60.09
68842;SHT35;55849;48.482;2.332;2022-08-19T05:30:53;22.26;60.02
68842;SHT35;55849;48.482;2.332;2022-08-19T05:33:55;22.27;59.88
68842;SHT35;55849;48.482;2.332;2022-08-19T05:37:00;22.26;60.15
68842;SHT35;55849;48.482;2.332;2022-08-19T05:40:03;22.32;60.08
68842;SHT35;55849;48.482;2.332;2022-08-19T05:43:07;22.32;60.21
68842;SHT35;55849;48.482;2.332;2022-08-19T05:46:16;22.30;60.33
68842;SHT35;55849;48.482;2.332;2022-08-19T05:49:20;22.34;60.27
68842;SHT35;55849;48.482;2.332;2022-08-19T05:52:22;22.32;60.29
68842;SHT35;55849;48.482;2.332;2022-08-19T05:55:24;22.37;60.59
68842;SHT35;55849;48.482;2.332;2022-08-19T05:58:26;22.36;60.45
68842;SHT35;55849;48.482;2.332;2022-08-19T06:01:28;22.39;60.37
68842;SHT35;55849;48.482;2.332;2022-08-19T06:04:30;22.39;60.67
68842;SHT35;55849;48.482;2.332;2022-08-19T06:07:31;22.41;60.80
68842;SHT35;55849;48.482;2.332;2022-08-19T06:10:33;22.44;60.65
68842;SHT35;55849;48.482;2.332;2022-08-19T06:13:37;22.48;60.61
68842;SHT35;55849;48.482;2.332;2022-08-19T06:16:40;22.53;60.82
68842;SHT35;55849;48.482;2.332;2022-08-19T06:19:42;22.55;60.87
68842;SHT35;55849;48.482;2.332;2022-08-19T06:22:45;22.60;61.16
68842;SHT35;55849;48.482;2.332;2022-08-19T06:25:48;22.61;61.37
68842;SHT35;55849;48.482;2.332;2022-08-19T06:28:51;22.65;61.47
68842;SHT35;55849;48.482;2.332;2022-08-19T06:31:55;22.67;61.53
68842;SHT35;55849;48.482;2.332;2022-08-19T06:34:57;22.67;61.51
68842;SHT35;55849;48.482;2.332;2022-08-19T06:37:58;22.69;61.96
68842;SHT35;55849;48.482;2.332;2022-08-19T06:41:01;22.69;61.62
68842;SHT35;55849;48.482;2.332;2022-08-19T06:44:05;22.75;61.81
68842;SHT35;55849;48.482;2.332;2022-08-19T06:47:08;22.78;61.82
68842;SHT35;55849;48.482;2.332;2022-08-19T06:50:10;22.81;62.09
68842;SHT35;55849;48.482;2.332;2022-08-19T06:53:12;22.88;62.03
68842;SHT35;55849;48.482;2.332;2022-08-19T06:56:14;22.94;62.13
68842;SHT35;55849;48.482;2.332;2022-08-19T06:59:21;22.98;61.71
68842;SHT35;55849;48.482;2.332;2022-08-19T07:02:27;22.99;61.53
68842;SHT35;55849;48.482;2.332;2022-08-19T07:05:29;23.03;61.49
68842;SHT35;55849;48.482;2.332;2022-08-19T07:08:32;23.07;61.44
68842;SHT35;55849;48.482;2.332;2022-08-19T07:11:34;23.10;61.38
68842;SHT35;55849;48.482;2.332;2022-08-19T07:14:38;23.14;61.56
68842;SHT35;55849;48.482;2.332;2022-08-19T07:17:40;23.17;61.53
68842;SHT35;55849;48.482;2.332;2022-08-19T07:20:43;23.21;61.48
68842;SHT35;55849;48.482;2.332;2022-08-19T07:23:45;23.26;61.32
68842;SHT35;55849;48.482;2.332;2022-08-19T07:26:47;23.34;61.38
68842;SHT35;55849;48.482;2.332;2022-08-19T07:29:50;23.36;61.18
68842;SHT35;55849;48.482;2.332;2022-08-19T07:32:52;23.38;61.05
68842;SHT35;55849;48.482;2.332;2022-08-19T07:35:54;23.43;61.30
68842;SHT35;55849;48.482;2.332;2022-08-19T07:38:55;23.47;61.25
68842;SHT35;55849;48.482;2.332;2022-08-19T07:41:59;23.48;61.20
68842;SHT35;55849;48.482;2.332;2022-08-19T07:45:02;23.54;61.02
68842;SHT35;55849;48.482;2.332;2022-08-19T07:48:04;23.55;61.01
68842;SHT35;55849;48.482;2.332;2022-08-19T07:51:07;23.58;61.01
68842;SHT35;55849;48.482;2.332;2022-08-19T07:54:10;23.61;61.00
68842;SHT35;55849;48.482;2.332;2022-08-19T07:57:11;23.64;60.96
68842;SHT35;55849;48.482;2.332;2022-08-19T08:00:15;23.71;61.10
68842;SHT35;55849;48.482;2.332;2022-08-19T08:03:19;23.75;61.27
68842;SHT35;55849;48.482;2.332;2022-08-19T08:06:21;23.79;61.03
68842;SHT35;55849;48.482;2.332;2022-08-19T08:09:42;23.83;61.19
68842;SHT35;55849;48.482;2.332;2022-08-19T08:12:44;23.85;60.91
68842;SHT35;55849;48.482;2.332;2022-08-19T08:15:47;23.89;60.45
68842;SHT35;55849;48.482;2.332;2022-08-19T08:18:48;23.89;60.75
68842;SHT35;55849;48.482;2.332;2022-08-19T08:21:50;23.92;60.40
68842;SHT35;55849;48.482;2.332;2022-08-19T08:24:52;23.95;60.42
68842;SHT35;55849;48.482;2.332;2022-08-19T08:27:54;24.02;60.60
68842;SHT35;55849;48.482;2.332;2022-08-19T08:30:58;24.06;60.38
68842;SHT35;55849;48.482;2.332;2022-08-19T08:34:00;24.12;60.19
68842;SHT35;55849;48.482;2.332;2022-08-19T08:37:01;24.13;60.20
68842;SHT35;55849;48.482;2.332;2022-08-19T08:40:05;24.16;59.95
68842;SHT35;55849;48.482;2.332;2022-08-19T08:43:18;24.20;60.06
68842;SHT35;55849;48.482;2.332;2022-08-19T08:46:26;24.24;60.07
68842;SHT35;55849;48.482;2.332;2022-08-19T08:49:36;24.30;59.92
68842;SHT35;55849;48.482;2.332;2022-08-19T08:52:44;24.35;59.56
68842;SHT35;55849;48.482;2.332;2022-08-19T08:55:46;24.44;59.48
68842;SHT35;55849;48.482;2.332;2022-08-19T08:58:52;24.47;59.25
68842;SHT35;55849;48.482;2.332;2022-08-19T09:01:59;24.51;59.27
68842;SHT35;55849;48.482;2.332;2022-08-19T09:05:01;24.55;59.22
68842;SHT35;55849;48.482;2.332;2022-08-19T09:08:08;24.61;59.15
68842;SHT35;55849;48.482;2.332;2022-08-19T09:11:15;24.65;58.95
68842;SHT35;55849;48.482;2.332;2022-08-19T09:14:32;24.71;58.98
68842;SHT35;55849;48.482;2.332;2022-08-19T09:17:36;24.76;59.04
68842;SHT35;55849;48.482;2.332;2022-08-19T09:20:38;24.85;58.97
68842;SHT35;55849;48.482;2.332;2022-08-19T09:23:40;24.92;58.56
68842;SHT35;55849;48.482;2.332;2022-08-19T09:26:43;24.97;58.39
68842;SHT35;55849;48.482;2.332;2022-08-19T09:29:46;25.02;58.08
68842;SHT35;55849;48.482;2.332;2022-08-19T09:32:50;25.09;58.10
68842;SHT35;55849;48.482;2.332;2022-08-19T09:36:02;25.16;57.77
68842;SHT35;55849;48.482;2.332;2022-08-19T09:39:04;25.21;57.80
68842;SHT35;55849;48.482;2.332;2022-08-19T09:42:06;25.28;57.53
68842;SHT35;55849;48.482;2.332;2022-08-19T09:45:11;25.35;57.35
68842;SHT35;55849;48.482;2.332;2022-08-19T09:48:15;25.41;57.42
68842;SHT35;55849;48.482;2.332;2022-08-19T09:51:20;25.46;56.76
68842;SHT35;55849;48.482;2.332;2022-08-19T09:54:23;25.53;56.66
68842;SHT35;55849;48.482;2.332;2022-08-19T09:57:24;25.59;56.70
68842;SHT35;55849;48.482;2.332;2022-08-19T10:00:26;25.65;56.50
68842;SHT35;55849;48.482;2.332;2022-08-19T10:03:30;25.68;56.84
68842;SHT35;55849;48.482;2.332;2022-08-19T10:06:32;25.80;56.95
68842;SHT35;55849;48.482;2.332;2022-08-19T10:09:34;25.89;56.15
68842;SHT35;55849;48.482;2.332;2022-08-19T10:12:36;25.93;55.90
68842;SHT35;55849;48.482;2.332;2022-08-19T10:15:38;25.94;55.75
68842;SHT35;55849;48.482;2.332;2022-08-19T10:18:42;26.01;55.81
68842;SHT35;55849;48.482;2.332;2022-08-19T10:21:44;26.03;55.67
68842;SHT35;55849;48.482;2.332;2022-08-19T10:24:45;26.10;55.83
68842;SHT35;55849;48.482;2.332;2022-08-19T10:27:47;26.17;55.54
68842;SHT35;55849;48.482;2.332;2022-08-19T10:30:49;26.25;55.40
68842;SHT35;55849;48.482;2.332;2022-08-19T10:33:52;26.31;55.27
68842;SHT35;55849;48.482;2.332;2022-08-19T10:36:59;26.37;55.32
68842;SHT35;55849;48.482;2.332;2022-08-19T10:40:01;26.46;55.40
68842;SHT35;55849;48.482;2.332;2022-08-19T10:43:03;26.53;55.15
68842;SHT35;55849;48.482;2.332;2022-08-19T10:46:06;26.59;54.84
68842;SHT35;55849;48.482;2.332;2022-08-19T10:49:10;26.63;54.84
68842;SHT35;55849;48.482;2.332;2022-08-19T10:52:12;26.66;54.89
68842;SHT35;55849;48.482;2.332;2022-08-19T10:55:31;26.75;54.80
68842;SHT35;55849;48.482;2.332;2022-08-19T10:58:50;26.80;54.77
68842;SHT35;55849;48.482;2.332;2022-08-19T11:01:51;26.87;54.82
68842;SHT35;55849;48.482;2.332;2022-08-19T11:04:54;26.97;54.37
68842;SHT35;55849;48.482;2.332;2022-08-19T11:07:56;27.03;54.17
68842;SHT35;55849;48.482;2.332;2022-08-19T11:10:59;27.05;54.08
68842;SHT35;55849;48.482;2.332;2022-08-19T11:14:02;27.11;54.15
68842;SHT35;55849;48.482;2.332;2022-08-19T11:17:04;27.14;54.02
68842;SHT35;55849;48.482;2.332;2022-08-19T11:20:09;27.24;53.54
68842;SHT35;55849;48.482;2.332;2022-08-19T11:23:11;27.30;53.48
68842;SHT35;55849;48.482;2.332;2022-08-19T11:26:13;27.37;52.85
68842;SHT35;55849;48.482;2.332;2022-08-19T11:29:15;27.42;52.82
68842;SHT35;55849;48.482;2.332;2022-08-19T11:32:18;27.43;52.76
68842;SHT35;55849;48.482;2.332;2022-08-19T11:35:21;27.42;52.71
68842;SHT35;55849;48.482;2.332;2022-08-19T11:38:23;27.41;52.61
68842;SHT35;55849;48.482;2.332;2022-08-19T11:41:25;27.45;52.62
68842;SHT35;55849;48.482;2.332;2022-08-19T11:44:27;27.42;52.48
68842;SHT35;55849;48.482;2.332;2022-08-19T11:47:30;27.46;51.93
68842;SHT35;55849;48.482;2.332;2022-08-19T11:50:33;27.52;52.09
68842;SHT35;55849;48.482;2.332;2022-08-19T11:53:36;27.59;51.58
68842;SHT35;55849;48.482;2.332;2022-08-19T11:56:39;27.65;51.29
68842;SHT35;55849;48.482;2.332;2022-08-19T11:59:40;27.77;50.90
68842;SHT35;55849;48.482;2.332;2022-08-19T12:02:42;27.84;50.84
68842;SHT35;55849;48.482;2.332;2022-08-19T12:05:45;27.94;50.84
68842;SHT35;55849;48.482;2.332;2022-08-19T12:08:47;28.01;50.52
68842;SHT35;55849;48.482;2.332;2022-08-19T12:11:48;28.08;50.38
68842;SHT35;55849;48.482;2.332;2022-08-19T12:14:51;28.14;50.32
68842;SHT35;55849;48.482;2.332;2022-08-19T12:17:57;28.18;50.24
68842;SHT35;55849;48.482;2.332;2022-08-19T12:20:59;28.21;50.16
68842;SHT35;55849;48.482;2.332;2022-08-19T12:24:03;28.21;50.07
68842;SHT35;55849;48.482;2.332;2022-08-19T12:27:05;28.24;50.35
68842;SHT35;55849;48.482;2.332;2022-08-19T12:30:10;28.29;50.80
68842;SHT35;55849;48.482;2.332;2022-08-19T12:33:13;28.45;50.79
68842;SHT35;55849;48.482;2.332;2022-08-19T12:36:16;28.60;50.83
68842;SHT35;55849;48.482;2.332;2022-08-19T12:39:18;28.73;50.13
68842;SHT35;55849;48.482;2.332;2022-08-19T12:42:20;28.81;49.73
68842;SHT35;55849;48.482;2.332;2022-08-19T12:45:22;28.80;49.56
68842;SHT35;55849;48.482;2.332;2022-08-19T12:48:26;28.80;49.63
68842;SHT35;55849;48.482;2.332;2022-08-19T12:51:29;28.73;49.76
68842;SHT35;55849;48.482;2.332;2022-08-19T12:54:31;28.71;49.72
68842;SHT35;55849;48.482;2.332;2022-08-19T12:57:33;28.69;49.75
68842;SHT35;55849;48.482;2.332;2022-08-19T13:00:36;28.76;49.45
68842;SHT35;55849;48.482;2.332;2022-08-19T13:03:38;28.88;48.95
68842;SHT35;55849;48.482;2.332;2022-08-19T13:06:41;29.04;48.60
68842;SHT35;55849;48.482;2.332;2022-08-19T13:09:42;29.16;47.90
68842;SHT35;55849;48.482;2.332;2022-08-19T13:12:47;29.28;47.46
68842;SHT35;55849;48.482;2.332;2022-08-19T13:15:49;29.29;47.07
68842;SHT35;55849;48.482;2.332;2022-08-19T13:18:51;29.30;46.83
68842;SHT35;55849;48.482;2.332;2022-08-19T13:21:54;29.25;47.10
68842;SHT35;55849;48.482;2.332;2022-08-19T13:24:56;29.23;47.15
68842;SHT35;55849;48.482;2.332;2022-08-19T13:27:59;29.25;47.13
68842;SHT35;55849;48.482;2.332;2022-08-19T13:31:00;29.23;47.25
68842;SHT35;55849;48.482;2.332;2022-08-19T13:34:28;29.23;46.91
68842;SHT35;55849;48.482;2.332;2022-08-19T13:37:31;29.16;47.38
68842;SHT35;55849;48.482;2.332;2022-08-19T13:40:46;29.10;46.98
68842;SHT35;55849;48.482;2.332;2022-08-19T13:43:47;29.00;46.87
68842;SHT35;55849;48.482;2.332;2022-08-19T13:46:49;28.93;46.92
68842;SHT35;55849;48.482;2.332;2022-08-19T13:49:53;28.84;47.03
68842;SHT35;55849;48.482;2.332;2022-08-19T13:52:56;28.77;47.25
68842;SHT35;55849;48.482;2.332;2022-08-19T13:55:58;28.71;47.38
68842;SHT35;55849;48.482;2.332;2022-08-19T13:59:00;28.67;47.55
68842;SHT35;55849;48.482;2.332;2022-08-19T14:02:01;28.61;47.58
68842;SHT35;55849;48.482;2.332;2022-08-19T14:05:07;28.56;47.75
68842;SHT35;55849;48.482;2.332;2022-08-19T14:08:10;28.50;47.87
68842;SHT35;55849;48.482;2.332;2022-08-19T14:11:12;28.45;47.88
68842;SHT35;55849;48.482;2.332;2022-08-19T14:14:14;28.42;48.23
68842;SHT35;55849;48.482;2.332;2022-08-19T14:17:16;28.36;48.24
68842;SHT35;55849;48.482;2.332;2022-08-19T14:20:18;28.32;48.25
68842;SHT35;55849;48.482;2.332;2022-08-19T14:23:21;28.29;48.62
68842;SHT35;55849;48.482;2.332;2022-08-19T14:26:23;28.25;49.11
68842;SHT35;55849;48.482;2.332;2022-08-19T14:29:24;28.19;49.94
68842;SHT35;55849;48.482;2.332;2022-08-19T14:32:27;28.14;51.67
68842;SHT35;55849;48.482;2.332;2022-08-19T14:35:31;28.08;52.37
68842;SHT35;55849;48.482;2.332;2022-08-19T14:38:36;28.07;53.01
68842;SHT35;55849;48.482;2.332;2022-08-19T14:41:40;28.01;52.33
68842;SHT35;55849;48.482;2.332;2022-08-19T14:44:41;27.97;52.25
68842;SHT35;55849;48.482;2.332;2022-08-19T14:47:43;27.97;52.79
68842;SHT35;55849;48.482;2.332;2022-08-19T14:50:45;27.97;52.55
68842;SHT35;55849;48.482;2.332;2022-08-19T14:53:48;27.96;52.67
68842;SHT35;55849;48.482;2.332;2022-08-19T14:56:50;27.97;52.42
68842;SHT35;55849;48.482;2.332;2022-08-19T14:59:52;27.94;52.65
68842;SHT35;55849;48.482;2.332;2022-08-19T15:02:53;27.93;52.83
68842;SHT35;55849;48.482;2.332;2022-08-19T15:05:56;27.93;53.09
68842;SHT35;55849;48.482;2.332;2022-08-19T15:08:59;27.98;53.06
68842;SHT35;55849;48.482;2.332;2022-08-19T15:12:01;28.07;52.17
68842;SHT35;55849;48.482;2.332;2022-08-19T15:15:03;28.07;52.05
68842;SHT35;55849;48.482;2.332;2022-08-19T15:18:05;28.11;52.23
68842;SHT35;55849;48.482;2.332;2022-08-19T15:21:06;28.18;51.49
68842;SHT35;55849;48.482;2.332;2022-08-19T15:24:09;28.24;51.46
68842;SHT35;55849;48.482;2.332;2022-08-19T15:27:11;28.35;50.96
68842;SHT35;55849;48.482;2.332;2022-08-19T15:30:19;28.43;51.21
68842;SHT35;55849;48.482;2.332;2022-08-19T15:33:21;28.49;50.80
68842;SHT35;55849;48.482;2.332;2022-08-19T15:36:23;28.56;50.65
68842;SHT35;55849;48.482;2.332;2022-08-19T15:39:27;28.64;50.11
68842;SHT35;55849;48.482;2.332;2022-08-19T15:42:29;28.70;50.24
68842;SHT35;55849;48.482;2.332;2022-08-19T15:45:31;28.71;49.98
68842;SHT35;55849;48.482;2.332;2022-08-19T15:48:32;28.71;49.74
68842;SHT35;55849;48.482;2.332;2022-08-19T15:51:35;28.70;49.85
68842;SHT35;55849;48.482;2.332;2022-08-19T15:54:39;28.66;49.97
68842;SHT35;55849;48.482;2.332;2022-08-19T15:57:41;28.61;50.23
68842;SHT35;55849;48.482;2.332;2022-08-19T16:01:01;28.63;50.25
68842;SHT35;55849;48.482;2.332;2022-08-19T16:04:21;28.67;50.14
68842;SHT35;55849;48.482;2.332;2022-08-19T16:07:40;28.81;49.96
68842;SHT35;55849;48.482;2.332;2022-08-19T16:10:43;28.95;50.03
68842;SHT35;55849;48.482;2.332;2022-08-19T16:13:44;29.05;50.05
68842;SHT35;55849;48.482;2.332;2022-08-19T16:16:46;29.10;49.45
68842;SHT35;55849;48.482;2.332;2022-08-19T16:19:48;29.10;49.44
68842;SHT35;55849;48.482;2.332;2022-08-19T16:22:50;29.10;49.24
68842;SHT35;55849;48.482;2.332;2022-08-19T16:25:53;29.07;48.97
68842;SHT35;55849;48.482;2.332;2022-08-19T16:28:55;29.02;49.18
68842;SHT35;55849;48.482;2.332;2022-08-19T16:31:56;28.93;49.21
68842;SHT35;55849;48.482;2.332;2022-08-19T16:34:58;28.81;49.61
68842;SHT35;55849;48.482;2.332;2022-08-19T16:37:59;28.77;49.96
68842;SHT35;55849;48.482;2.332;2022-08-19T16:41:04;28.67;50.34
68842;SHT35;55849;48.482;2.332;2022-08-19T16:44:07;28.63;51.64
68842;SHT35;55849;48.482;2.332;2022-08-19T16:47:09;28.50;54.53
68842;SHT35;55849;48.482;2.332;2022-08-19T16:50:11;28.36;55.81
68842;SHT35;55849;48.482;2.332;2022-08-19T16:53:13;28.22;55.91
68842;SHT35;55849;48.482;2.332;2022-08-19T16:56:16;28.08;57.29
68842;SHT35;55849;48.482;2.332;2022-08-19T16:59:19;27.94;58.62
68842;SHT35;55849;48.482;2.332;2022-08-19T17:02:21;27.84;58.08
68842;SHT35;55849;48.482;2.332;2022-08-19T17:05:23;27.73;59.19
68842;SHT35;55849;48.482;2.332;2022-08-19T17:08:25;27.63;60.27
68842;SHT35;55849;48.482;2.332;2022-08-19T17:11:29;27.53;59.85
68842;SHT35;55849;48.482;2.332;2022-08-19T17:14:32;27.45;60.66
68842;SHT35;55849;48.482;2.332;2022-08-19T17:17:34;27.38;60.74
68842;SHT35;55849;48.482;2.332;2022-08-19T17:20:37;27.31;60.80
68842;SHT35;55849;48.482;2.332;2022-08-19T17:23:38;27.22;61.51
68842;SHT35;55849;48.482;2.332;2022-08-19T17:26:41;27.15;61.71
68842;SHT35;55849;48.482;2.332;2022-08-19T17:29:43;27.10;61.49
68842;SHT35;55849;48.482;2.332;2022-08-19T17:32:45;27.08;61.63
68842;SHT35;55849;48.482;2.332;2022-08-19T17:35:46;27.00;62.27
68842;SHT35;55849;48.482;2.332;2022-08-19T17:38:48;26.96;62.39
68842;SHT35;55849;48.482;2.332;2022-08-19T17:41:51;26.91;63.10
68842;SHT35;55849;48.482;2.332;2022-08-19T17:44:53;26.87;63.84
68842;SHT35;55849;48.482;2.332;2022-08-19T17:47:58;26.83;64.06
68842;SHT35;55849;48.482;2.332;2022-08-19T17:51:12;26.79;64.01
68842;SHT35;55849;48.482;2.332;2022-08-19T17:54:16;26.76;64.01
68842;SHT35;55849;48.482;2.332;2022-08-19T17:57:20;26.72;64.45
68842;SHT35;55849;48.482;2.332;2022-08-19T18:00:22;26.68;63.95
68842;SHT35;55849;48.482;2.332;2022-08-19T18:03:23;26.60;64.40
68842;SHT35;55849;48.482;2.332;2022-08-19T18:06:29;26.57;63.87
68842;SHT35;55849;48.482;2.332;2022-08-19T18:09:33;26.49;64.99
68842;SHT35;55849;48.482;2.332;2022-08-19T18:12:36;26.49;65.84
68842;SHT35;55849;48.482;2.332;2022-08-19T18:15:38;26.42;65.07
68842;SHT35;55849;48.482;2.332;2022-08-19T18:18:41;26.38;65.03
68842;SHT35;55849;48.482;2.332;2022-08-19T18:21:43;26.35;66.49
68842;SHT35;55849;48.482;2.332;2022-08-19T18:24:46;26.31;65.44
68842;SHT35;55849;48.482;2.332;2022-08-19T18:27:49;26.25;66.19
68842;SHT35;55849;48.482;2.332;2022-08-19T18:30:51;26.21;66.16
68842;SHT35;55849;48.482;2.332;2022-08-19T18:33:52;26.16;67.36
68842;SHT35;55849;48.482;2.332;2022-08-19T18:36:54;26.11;66.59
68842;SHT35;55849;48.482;2.332;2022-08-19T18:39:56;26.07;66.91
68842;SHT35;55849;48.482;2.332;2022-08-19T18:43:16;26.03;66.97
68842;SHT35;55849;48.482;2.332;2022-08-19T18:46:35;25.97;66.85
68842;SHT35;55849;48.482;2.332;2022-08-19T18:49:54;25.90;67.07
68842;SHT35;55849;48.482;2.332;2022-08-19T18:52:55;25.85;67.87
68842;SHT35;55849;48.482;2.332;2022-08-19T18:55:57;25.82;66.73
68842;SHT35;55849;48.482;2.332;2022-08-19T18:59:01;25.80;68.44
68842;SHT35;55849;48.482;2.332;2022-08-19T19:02:02;25.73;68.05
68842;SHT35;55849;48.482;2.332;2022-08-19T19:05:06;25.68;68.67
68842;SHT35;55849;48.482;2.332;2022-08-19T19:08:07;25.61;68.83
68842;SHT35;55849;48.482;2.332;2022-08-19T19:11:11;25.57;68.31
68842;SHT35;55849;48.482;2.332;2022-08-19T19:14:18;25.46;69.34
68842;SHT35;55849;48.482;2.332;2022-08-19T19:17:22;25.42;69.95